Time;durP1;ratioP1;P1;durP2;ratioP2;P2;SDS_P1;SDS_P2;PMS_P1;PMS_P2;Temp;Humidity;BMP_temperature;BMP_pressure;BME280_temperature;BME280_humidity;BME280_pressure;Samples;Min_cycle;Max_cycle;Signal;HPM_P1;HPM_P2
2023/07/14 00:01:56;;;;;;;0.32;0.32;;;27.10;68.60;;;27.72;53.09;95226.22;5098040;28;20196;-40
2023/07/14 00:04:33;;;;;;;0.30;0.30;;;27.10;68.60;;;27.70;52.69;95226.53;5098047;28;20196;-41
2023/07/14 00:07:02;;;;;;;0.28;0.28;;;27.10;68.60;;;27.68;53.00;95230.59;5097410;28;20271;-41
2023/07/14 00:09:32;;;;;;;0.30;0.30;;;27.10;68.60;;;27.69;52.92;95237.59;5097118;28;20247;-41
2023/07/14 00:12:00;;;;;;;0.25;0.25;;;27.10;68.60;;;27.66;53.32;95230.09;5097870;28;20199;-44
2023/07/14 00:14:28;;;;;;;0.30;0.30;;;27.00;68.60;;;27.63;52.99;95226.88;5097238;28;20235;-40
2023/07/14 00:16:56;;;;;;;0.30;0.30;;;27.00;68.60;;;27.62;52.74;95222.59;5097213;28;20194;-40
2023/07/14 00:19:26;;;;;;;0.30;0.30;;;27.00;68.60;;;27.61;53.11;95228.28;5097050;28;20186;-41
2023/07/14 00:21:53;;;;;;;0.22;0.22;;;27.00;68.60;;;27.59;53.14;95228.56;5097105;28;20278;-42
2023/07/14 00:24:20;;;;;;;0.30;0.30;;;27.00;68.60;;;27.58;52.80;95224.28;5097083;28;20233;-40
2023/07/14 00:26:55;;;;;;;0.30;0.30;;;27.00;68.60;;;27.57;52.99;95216.50;5097269;28;20773;-40
2023/07/14 00:29:39;;;;;;;0.20;0.20;;;27.00;68.60;;;27.54;53.14;95219.75;5096685;28;20252;-40
2023/07/14 00:32:18;;;;;;;0.30;0.30;;;27.00;68.60;;;27.52;52.89;95222.75;5097541;28;20184;-41
2023/07/14 00:34:46;;;;;;;0.30;0.30;;;26.90;68.50;;;27.52;53.36;95222.75;5097462;28;20222;-44
2023/07/14 00:37:13;;;;;;;0.40;0.40;;;26.90;68.50;;;27.50;52.90;95227.63;5096739;28;20198;-41
2023/07/14 00:39:41;;;;;;;0.30;0.30;;;26.90;68.50;;;27.50;53.44;95218.75;5096589;28;20273;-45
2023/07/14 00:42:13;;;;;;;0.30;0.30;;;26.90;68.50;;;27.48;53.46;95210.97;5096963;28;20198;-41
2023/07/14 00:44:43;;;;;;;0.32;0.32;;;26.90;68.50;;;27.47;53.35;95220.13;5096621;28;20193;-44
2023/07/14 00:47:22;;;;;;;0.30;0.30;;;26.90;68.50;;;27.44;52.85;95218.00;5096603;28;20200;-42
2023/07/14 00:49:51;;;;;;;0.30;0.30;;;26.90;68.50;;;27.43;52.92;95217.22;5097124;28;20630;-43
2023/07/14 00:52:31;;;;;;;0.32;0.32;;;26.90;68.50;;;27.42;53.48;95215.63;5095640;28;20707;-45
2023/07/14 00:54:58;;;;;;;0.22;0.22;;;26.90;68.50;;;27.41;52.89;95210.53;5096483;28;20196;-43
2023/07/14 00:57:28;;;;;;;0.38;0.38;;;26.80;68.50;;;27.40;52.95;95211.59;5096663;28;20258;-43
2023/07/14 01:00:00;;;;;;;0.20;0.20;;;26.90;68.50;;;27.37;52.96;95207.59;5095405;28;20234;-45
2023/07/14 01:02:28;;;;;;;0.30;0.30;;;26.80;68.50;;;27.37;53.23;95210.28;5096534;28;20617;-43
2023/07/14 01:05:07;;;;;;;0.32;0.32;;;26.80;69.40;;;27.33;53.34;95207.38;5095320;28;20201;-49
2023/07/14 01:07:40;;;;;;;0.30;0.30;;;26.80;68.50;;;27.33;53.50;95209.25;5096197;28;20663;-46
2023/07/14 01:10:13;;;;;;;0.30;0.30;;;26.80;68.50;;;27.31;52.84;95209.53;5112006;28;20657;-44
2023/07/14 01:12:46;;;;;;;0.30;0.30;;;26.80;68.50;;;27.30;53.41;95213.31;5095551;28;20512;-46
2023/07/14 01:15:15;;;;;;;0.30;0.30;;;26.80;68.40;;;27.28;53.35;95204.75;5096347;28;20279;-46
2023/07/14 01:17:45;;;;;;;0.40;0.40;;;26.80;68.50;;;27.28;53.56;95210.13;5095102;28;20202;-43
2023/07/14 01:20:12;;;;;;;0.30;0.30;;;26.70;68.40;;;27.26;53.32;95212.31;5095810;28;20661;-44
2023/07/14 01:22:54;;;;;;;0.30;0.30;;;26.70;68.40;;;27.24;53.58;95209.09;5078494;28;20256;-44
2023/07/14 01:25:35;;;;;;;0.30;0.30;;;26.70;68.40;;;27.21;53.49;95209.69;5095952;28;20571;-40
2023/07/14 01:28:09;;;;;;;0.30;0.30;;;26.70;68.40;;;27.20;53.71;95218.06;5095716;28;20231;-42
2023/07/14 01:30:38;;;;;;;0.30;0.30;;;26.70;68.40;;;27.19;52.98;95214.56;5096043;28;20253;-42
2023/07/14 01:33:12;;;;;;;0.30;0.30;;;26.70;68.40;;;27.16;53.24;95218.66;5111987;28;20235;-42
2023/07/14 01:35:45;;;;;;;0.30;0.30;;;26.70;68.40;;;27.16;53.00;95224.03;5095721;28;20197;-41
2023/07/14 01:38:13;;;;;;;0.30;0.30;;;26.70;68.40;;;27.15;53.47;95222.41;5094588;28;20192;-42
2023/07/14 01:40:40;;;;;;;0.30;0.30;;;26.70;68.40;;;27.15;53.48;95216.25;5095017;28;20196;-43
2023/07/14 01:43:10;;;;;;;0.30;0.30;;;26.60;68.30;;;27.12;53.53;95223.03;5095184;28;20235;-41
2023/07/14 01:45:44;;;;;;;0.30;0.30;;;26.60;68.40;;;27.11;53.77;95220.59;5095296;28;20596;-42
2023/07/14 01:48:15;;;;;;;0.30;0.30;;;26.60;68.40;;;27.09;53.51;95218.19;5077799;28;20263;-42
2023/07/14 01:50:53;;;;;;;0.40;0.40;;;26.60;68.30;;;27.07;53.09;95212.28;5094880;28;20292;-44
2023/07/14 01:53:45;;;;;;;0.30;0.30;;;26.60;68.40;;;27.03;53.68;95216.66;5094861;28;20171;-42
2023/07/14 01:56:17;;;;;;;0.30;0.30;;;26.60;68.40;;;27.03;53.10;95216.66;5094789;28;20486;-42
2023/07/14 01:59:00;;;;;;;0.30;0.30;;;26.60;68.40;;;27.00;53.70;95218.03;5094345;28;20202;-42
2023/07/14 02:01:30;;;;;;;0.30;0.30;;;26.50;68.20;;;26.99;53.18;95215.66;5094617;28;20222;-43
2023/07/14 02:03:58;;;;;;;0.30;0.30;;;26.50;68.20;;;26.99;53.76;95221.03;5094717;28;20192;-41
2023/07/14 02:06:25;;;;;;;0.30;0.30;;;26.50;68.30;;;26.97;53.63;95226.69;5095250;28;20187;-43
2023/07/14 02:08:52;;;;;;;0.30;0.30;;;26.50;68.40;;;26.96;53.55;95222.38;5111621;28;20242;-43
2023/07/14 02:11:23;;;;;;;0.30;0.30;;;26.50;68.40;;;26.94;53.53;95229.16;5111494;28;20747;-42
2023/07/14 02:13:52;;;;;;;0.30;0.30;;;26.50;68.50;;;26.93;53.57;95231.06;5095167;28;20195;-43
2023/07/14 02:16:20;;;;;;;0.30;0.30;;;26.50;68.40;;;26.93;53.17;95227.56;5095418;28;20194;-45
2023/07/14 02:18:49;;;;;;;0.40;0.40;;;26.40;68.40;;;26.91;53.23;95232.44;5094054;28;20191;-44
2023/07/14 02:21:27;;;;;;;0.20;0.20;;;26.40;68.50;;;26.90;53.74;95238.91;5077569;28;20289;-45
2023/07/14 02:23:56;;;;;;;0.30;0.30;;;26.40;68.60;;;26.88;53.18;95241.88;5094486;28;20183;-45
2023/07/14 02:26:32;;;;;;;0.30;0.30;;;26.40;68.50;;;26.88;53.62;95251.84;5094629;28;20241;-44
2023/07/14 02:28:59;;;;;;;0.30;0.30;;;26.40;68.50;;;26.86;53.96;95246.75;5094769;28;20298;-43
2023/07/14 02:31:38;;;;;;;0.30;0.30;;;26.40;68.60;;;26.82;53.57;95235.75;5095008;28;20202;-45
2023/07/14 02:34:10;;;;;;;0.30;0.30;;;26.40;68.50;;;26.80;53.52;95237.94;5095073;28;20174;-45
2023/07/14 02:36:44;;;;;;;0.30;0.30;;;26.40;68.50;;;26.80;53.45;95254.06;5094023;28;20272;-45
2023/07/14 02:39:11;;;;;;;0.30;0.30;;;26.40;68.50;;;26.80;53.20;95239.81;5094146;28;20243;-45
2023/07/14 02:41:42;;;;;;;0.30;0.30;;;26.30;68.50;;;26.79;53.32;95249.00;5095106;28;20206;-43
2023/07/14 02:44:14;;;;;;;0.30;0.30;;;26.30;68.50;;;26.76;53.58;95241.50;5094313;28;20203;-48
2023/07/14 02:46:56;;;;;;;0.30;0.30;;;26.30;68.60;;;26.74;53.45;95246.31;5093992;28;20699;-47
2023/07/14 02:49:23;;;;;;;0.30;0.30;;;26.30;68.60;;;26.73;53.29;95256.28;5095016;28;20642;-45
2023/07/14 02:51:50;;;;;;;0.40;0.40;;;26.30;68.50;;;26.73;53.60;95253.59;5093853;28;20223;-43
2023/07/14 02:54:17;;;;;;;0.30;0.30;;;26.30;68.50;;;26.72;53.54;95249.31;5094741;28;20624;-50
2023/07/14 02:56:45;;;;;;;0.30;0.30;;;26.30;68.60;;;26.69;53.23;95250.66;5095325;28;20183;-43
2023/07/14 02:59:13;;;;;;;0.30;0.30;;;26.30;68.60;;;26.70;53.26;95254.16;5095025;28;20271;-46
2023/07/14 03:01:40;;;;;;;0.30;0.30;;;26.30;68.60;;;26.67;53.87;95250.16;5096593;28;20219;-46
2023/07/14 03:04:09;;;;;;;0.30;0.30;;;26.20;68.50;;;26.67;53.56;95246.66;5098864;28;20202;-46
2023/07/14 03:06:36;;;;;;;0.30;0.30;;;26.20;68.50;;;26.66;53.71;95259.31;5098557;28;20199;-44
2023/07/14 03:09:03;;;;;;;0.40;0.40;;;26.20;68.50;;;26.65;53.63;95259.63;5097413;28;20593;-50
2023/07/14 03:11:30;;;;;;;0.30;0.30;;;26.20;68.50;;;26.64;53.74;95260.69;5097742;28;20517;-49
2023/07/14 03:13:58;;;;;;;0.30;0.30;;;26.20;68.60;;;26.63;53.98;95257.19;5098431;28;20223;-46
2023/07/14 03:16:26;;;;;;;0.30;0.30;;;26.20;69.50;;;26.62;53.93;95250.22;5098425;28;20636;-49
2023/07/14 03:18:53;;;;;;;0.30;0.30;;;26.20;68.60;;;26.59;53.10;95248.09;5098366;28;20199;-45
2023/07/14 03:21:21;;;;;;;0.30;0.30;;;26.20;68.70;;;26.58;53.50;95254.56;5098279;28;20200;-44
2023/07/14 03:23:48;;;;;;;0.30;0.30;;;26.10;68.60;;;26.58;53.67;95251.88;5097268;28;20203;-43
2023/07/14 03:26:15;;;;;;;0.30;0.30;;;26.10;68.60;;;26.56;53.82;95255.94;5098483;28;20188;-45
2023/07/14 03:28:43;;;;;;;0.30;0.30;;;26.20;68.70;;;26.55;53.40;95259.72;5098197;28;20198;-45
2023/07/14 03:31:10;;;;;;;0.30;0.30;;;26.10;68.60;;;26.53;53.67;95257.31;5098083;27;20244;-45
2023/07/14 03:33:38;;;;;;;0.30;0.30;;;26.10;68.60;;;26.52;53.68;95255.69;5098609;28;20615;-46
2023/07/14 03:36:10;;;;;;;0.30;0.30;;;26.10;69.60;;;26.51;53.71;95257.59;5098130;28;20271;-44
2023/07/14 03:38:44;;;;;;;0.50;0.50;;;26.10;68.70;;;26.50;53.37;95256.00;5097185;28;20244;-43
2023/07/14 03:41:14;;;;;;;0.30;0.30;;;26.10;68.80;;;26.49;53.82;95253.59;5097890;28;20240;-45
2023/07/14 03:43:42;;;;;;;0.30;0.30;;;26.10;68.70;;;26.47;54.11;95261.94;5096953;28;20208;-43
2023/07/14 03:46:10;;;;;;;0.30;0.30;;;26.10;68.70;;;26.47;53.53;95258.44;5096841;28;20236;-43
2023/07/14 03:48:38;;;;;;;0.30;0.30;;;26.00;68.60;;;26.46;53.61;95260.31;5098030;28;20216;-45
2023/07/14 03:51:05;;;;;;;0.30;0.30;;;26.00;68.60;;;26.45;53.31;95263.31;5114020;28;20643;-46
2023/07/14 03:53:33;;;;;;;0.50;0.50;;;26.00;68.70;;;26.45;53.47;95252.53;5113724;28;20615;-45
2023/07/14 03:56:00;;;;;;;0.30;0.30;;;26.00;68.70;;;26.43;53.71;95258.22;5113686;28;20233;-45
2023/07/14 03:58:28;;;;;;;0.30;0.30;;;26.00;68.80;;;26.41;54.17;95273.03;5097578;28;20198;-45
2023/07/14 04:01:01;;;;;;;0.32;0.32;;;26.00;68.80;;;26.40;53.91;95261.47;5113446;28;20246;-40
2023/07/14 04:03:29;;;;;;;0.30;0.30;;;26.00;68.80;;;26.40;53.67;95266.06;5080721;28;20200;-42
2023/07/14 04:05:56;;;;;;;0.30;0.30;;;26.00;68.80;;;26.38;53.94;95263.66;5096513;28;20389;-47
2023/07/14 04:08:28;;;;;;;0.30;0.30;;;26.00;68.70;;;26.37;54.02;95260.16;5096526;28;20677;-45
2023/07/14 04:10:55;;;;;;;0.30;0.30;;;26.00;68.80;;;26.35;54.11;95259.66;5096214;28;20222;-43
2023/07/14 04:13:24;;;;;;;0.30;0.30;;;26.00;68.80;;;26.35;53.81;95256.97;5112998;28;20207;-42
2023/07/14 04:15:51;;;;;;;0.30;0.30;;;25.90;68.80;;;26.35;53.57;95259.66;5097546;28;20203;-41
2023/07/14 04:18:18;;;;;;;0.30;0.30;;;25.90;68.80;;;26.33;53.80;95261.81;5096640;28;20205;-43
2023/07/14 04:20:46;;;;;;;0.45;0.45;;;25.90;68.80;;;26.34;53.83;95262.59;5097428;28;20245;-44
2023/07/14 04:23:13;;;;;;;0.30;0.30;;;25.90;68.80;;;26.32;53.79;95254.81;5097417;28;20589;-43
2023/07/14 04:25:41;;;;;;;0.32;0.32;;;25.90;68.90;;;26.32;53.88;95262.09;5097122;28;20286;-42
2023/07/14 04:28:08;;;;;;;0.30;0.30;;;25.90;68.90;;;26.31;53.72;95260.50;5096883;28;20254;-41
2023/07/14 04:30:35;;;;;;;0.30;0.30;;;25.90;68.80;;;26.30;53.67;95261.56;5096146;28;20322;-43
2023/07/14 04:33:04;;;;;;;0.30;0.30;;;25.90;68.90;;;26.29;53.70;95268.03;5097202;28;20195;-42
2023/07/14 04:35:31;;;;;;;0.30;0.30;;;25.90;68.90;;;26.29;54.22;95270.72;5096883;28;20189;-41
2023/07/14 04:37:58;;;;;;;0.30;0.30;;;25.90;69.00;;;26.27;54.29;95272.88;5096866;28;20268;-42
2023/07/14 04:40:25;;;;;;;0.40;0.40;;;25.90;69.00;;;26.28;53.86;95274.50;5096948;28;20589;-44
2023/07/14 04:43:03;;;;;;;0.30;0.30;;;25.90;69.00;;;26.27;53.77;95270.19;5097060;28;20220;-43
2023/07/14 04:45:30;;;;;;;0.20;0.20;;;25.90;68.90;;;26.25;54.19;95267.00;5096949;28;20282;-43
2023/07/14 04:47:57;;;;;;;0.40;0.40;;;25.90;69.00;;;26.25;54.25;95273.16;5096948;28;20193;-44
2023/07/14 04:50:25;;;;;;;0.30;0.30;;;25.90;69.00;;;26.25;54.10;95262.41;5096750;28;20535;-43
2023/07/14 04:52:53;;;;;;;0.30;0.30;;;25.90;69.10;;;26.24;54.19;95271.56;5096709;28;20620;-45
2023/07/14 04:55:20;;;;;;;0.30;0.30;;;25.90;69.10;;;26.26;54.13;95274.00;5096532;28;20192;-42
2023/07/14 04:57:47;;;;;;;0.30;0.30;;;25.90;69.10;;;26.26;54.20;95271.31;5097510;28;20198;-42
2023/07/14 05:00:20;;;;;;;0.30;0.30;;;25.90;69.10;;;26.25;54.15;95267.78;5096362;28;20222;-42
2023/07/14 05:02:47;;;;;;;0.30;0.30;;;25.90;69.20;;;26.25;53.91;95273.16;5096272;28;20184;-41
2023/07/14 05:05:20;;;;;;;0.30;0.30;;;25.90;69.20;;;26.26;54.28;95274.78;5095512;28;20192;-44
2023/07/14 05:07:48;;;;;;;0.30;0.30;;;25.90;69.20;;;26.25;54.48;95275.06;5096598;28;20183;-47
2023/07/14 05:10:17;;;;;;;0.30;0.30;;;25.90;69.10;;;26.25;53.92;95273.16;5096393;28;20633;-42
2023/07/14 05:12:44;;;;;;;0.30;0.30;;;25.80;69.00;;;26.24;54.58;95274.25;5096268;28;20697;-42
2023/07/14 05:15:12;;;;;;;0.30;0.30;;;25.90;69.10;;;26.25;54.37;95277.75;5096655;28;20191;-42
2023/07/14 05:17:41;;;;;;;0.30;0.30;;;25.90;69.00;;;26.24;53.95;95276.16;5096020;28;20204;-42
2023/07/14 05:20:10;;;;;;;0.25;0.25;;;25.80;68.90;;;26.25;54.12;95277.75;5096378;28;20224;-41
2023/07/14 05:22:41;;;;;;;0.30;0.30;;;25.90;69.00;;;26.24;53.82;95274.25;5096033;28;20285;-42
2023/07/14 05:25:09;;;;;;;0.30;0.30;;;25.90;68.80;;;26.24;53.78;95281.53;5095637;28;20184;-42
2023/07/14 05:27:38;;;;;;;0.30;0.30;;;25.80;68.80;;;26.24;53.85;95279.63;5095879;28;20251;-42
2023/07/14 05:30:09;;;;;;;0.30;0.30;;;25.90;68.60;;;26.24;53.60;95282.31;5095649;28;20293;-42
2023/07/14 05:32:36;;;;;;;0.60;0.60;;;25.80;68.60;;;26.23;54.27;95286.09;5096125;28;20275;-42
2023/07/14 05:35:04;;;;;;;0.30;0.30;;;25.80;68.70;;;26.24;54.05;95276.16;5095792;28;20249;-40
2023/07/14 05:37:31;;;;;;;0.30;0.30;;;25.80;68.60;;;26.23;53.66;95274.53;5095995;28;20217;-42
2023/07/14 05:39:58;;;;;;;0.30;0.30;;;25.80;68.50;;;26.23;53.49;95278.03;5095784;28;20200;-42
2023/07/14 05:42:25;;;;;;;0.30;0.30;;;25.90;68.50;;;26.24;54.02;95276.16;5096213;28;20251;-42
2023/07/14 05:44:52;;;;;;;0.30;0.30;;;25.80;68.50;;;26.24;53.42;95274.25;5095729;28;20209;-41
2023/07/14 05:47:23;;;;;;;0.40;0.40;;;25.90;68.50;;;26.24;53.44;95276.16;5095569;28;20279;-42
2023/07/14 05:49:51;;;;;;;0.30;0.30;;;25.80;68.40;;;26.25;53.29;95280.44;5095767;28;20182;-42
2023/07/14 05:52:19;;;;;;;0.20;0.20;;;25.90;68.50;;;26.24;53.50;95276.94;5095391;28;20623;-41
2023/07/14 05:54:47;;;;;;;0.32;0.32;;;25.80;68.40;;;26.24;53.51;95276.16;5095991;28;20197;-44
2023/07/14 05:57:14;;;;;;;0.20;0.20;;;25.90;68.50;;;26.24;53.68;95270.78;5095393;28;20224;-42
2023/07/14 05:59:42;;;;;;;0.22;0.22;;;25.80;68.50;;;26.25;53.57;95269.69;5095612;28;20206;-42
2023/07/14 06:02:14;;;;;;;0.30;0.30;;;25.90;68.60;;;26.25;53.47;95269.69;5095859;28;20201;-40
2023/07/14 06:04:42;;;;;;;0.30;0.30;;;25.80;68.50;;;26.26;53.61;95265.94;5095608;28;20551;-43
2023/07/14 06:07:10;;;;;;;0.30;0.30;;;25.90;68.50;;;26.26;53.36;95260.53;5095101;28;20202;-41
2023/07/14 06:09:38;;;;;;;0.30;0.30;;;25.90;68.50;;;26.26;53.99;95266.72;5095348;28;20631;-42
2023/07/14 06:12:09;;;;;;;0.30;0.30;;;25.90;68.50;;;26.27;54.05;95264.81;5094258;28;20210;-42
2023/07/14 06:14:39;;;;;;;0.35;0.35;;;25.90;68.40;;;26.26;53.49;95258.66;5095497;28;20271;-46
2023/07/14 06:17:08;;;;;;;0.30;0.30;;;25.90;68.50;;;26.27;53.28;95257.56;5095276;28;20191;-42
2023/07/14 06:19:37;;;;;;;0.30;0.30;;;25.90;69.40;;;26.28;53.16;95259.19;5095133;28;20249;-43
2023/07/14 06:22:06;;;;;;;0.30;0.30;;;25.90;68.50;;;26.28;53.79;95264.56;5095193;28;20233;-43
2023/07/14 06:24:36;;;;;;;0.30;0.30;;;25.90;68.40;;;26.30;53.90;95270.44;5095098;28;20198;-40
2023/07/14 06:27:05;;;;;;;0.30;0.30;;;25.90;68.40;;;26.30;53.19;95273.13;5094900;28;20252;-43
2023/07/14 06:29:37;;;;;;;0.30;0.30;;;25.90;67.90;;;26.30;53.15;95272.31;5095653;28;20616;-41
2023/07/14 06:32:04;;;;;;;0.50;0.50;;;25.90;68.80;;;26.31;52.80;95279.31;5094184;28;20256;-43
2023/07/14 06:34:32;;;;;;;0.30;0.30;;;25.90;67.90;;;26.32;53.30;95280.94;5095553;28;20257;-43
2023/07/14 06:36:59;;;;;;;0.30;0.30;;;25.90;68.20;;;26.33;52.93;95277.94;5098978;28;20307;-40
2023/07/14 06:39:26;;;;;;;0.30;0.30;;;25.90;67.90;;;26.33;53.22;95264.50;5099258;28;20192;-42
2023/07/14 06:41:53;;;;;;;0.30;0.30;;;25.90;67.90;;;26.34;53.06;95268.78;5099093;28;20267;-43
2023/07/14 06:44:25;;;;;;;0.30;0.30;;;25.90;68.20;;;26.36;52.81;95273.88;5098140;28;20289;-42
2023/07/14 06:46:53;;;;;;;0.30;0.30;;;25.90;67.90;;;26.35;53.17;95261.50;5098818;28;20195;-42
2023/07/14 06:49:20;;;;;;;0.35;0.35;;;25.90;67.90;;;26.36;52.92;95263.91;5099097;28;20196;-41
2023/07/14 06:51:52;;;;;;;0.30;0.30;;;25.90;67.90;;;26.37;52.83;95267.44;5099418;28;20221;-42
2023/07/14 06:54:19;;;;;;;0.40;0.40;;;25.90;67.90;;;26.37;53.27;95260.16;5098785;28;20309;-43
2023/07/14 06:56:46;;;;;;;0.30;0.30;;;26.00;68.00;;;26.39;52.72;95261.75;5098737;28;20635;-43
2023/07/14 06:59:12;;;;;;;0.30;0.30;;;26.00;68.00;;;26.40;52.98;95263.34;5098802;28;20200;-42
2023/07/14 07:01:40;;;;;;;0.30;0.30;;;26.00;68.00;;;26.40;52.43;95261.47;5099003;28;20566;-42
2023/07/14 07:04:07;;;;;;;0.30;0.30;;;26.00;68.00;;;26.42;52.93;95255.81;5098727;28;20196;-44
2023/07/14 07:06:34;;;;;;;0.30;0.30;;;26.00;68.00;;;26.42;52.49;95259.28;5099197;28;20285;-40
2023/07/14 07:09:01;;;;;;;0.30;0.30;;;26.00;68.00;;;26.42;52.18;95264.69;5098838;28;20207;-42
2023/07/14 07:11:30;;;;;;;0.30;0.30;;;26.00;68.00;;;26.43;52.31;95260.13;5098381;28;20605;-39
2023/07/14 07:13:57;;;;;;;0.38;0.38;;;26.00;68.00;;;26.45;51.94;95261.44;5097861;28;20201;-42
2023/07/14 07:16:24;;;;;;;0.22;0.22;;;26.00;67.70;;;26.46;52.17;95265.69;5097457;28;20373;-41
2023/07/14 07:18:51;;;;;;;0.30;0.30;;;26.00;67.60;;;26.47;52.11;95274.59;5098644;27;20203;-41
2023/07/14 07:21:18;;;;;;;0.30;0.30;;;26.00;67.50;;;26.47;51.63;95261.94;5098654;28;20227;-40
2023/07/14 07:23:45;;;;;;;0.30;0.30;;;26.00;67.40;;;26.49;51.63;95264.34;5097476;28;20304;-43
2023/07/14 07:26:12;;;;;;;0.30;0.30;;;26.00;67.20;;;26.49;51.44;95264.34;5098335;28;20264;-41
2023/07/14 07:28:40;;;;;;;0.20;0.20;;;26.10;67.30;;;26.49;51.45;95262.47;5098555;28;20181;-40
2023/07/14 07:31:09;;;;;;;0.40;0.40;;;26.10;67.20;;;26.50;51.59;95244.41;5098240;28;20219;-42
2023/07/14 07:33:38;;;;;;;0.25;0.25;;;26.00;67.10;;;26.52;51.54;95255.69;5098131;28;20196;-39
2023/07/14 07:36:17;;;;;;;0.30;0.30;;;26.10;67.00;;;26.52;51.13;95255.69;5097958;28;20189;-41
2023/07/14 07:38:47;;;;;;;0.30;0.30;;;26.10;67.00;;;26.51;51.15;95246.03;5098096;28;20184;-41
2023/07/14 07:41:18;;;;;;;0.38;0.38;;;26.10;66.80;;;26.52;50.74;95251.13;5097997;28;20223;-42
2023/07/14 07:43:45;;;;;;;0.30;0.30;;;26.10;66.70;;;26.53;50.84;95249.25;5098051;28;20211;-44
2023/07/14 07:46:13;;;;;;;0.30;0.30;;;26.10;66.70;;;26.56;51.09;95255.94;5097920;28;20207;-42
2023/07/14 07:48:42;;;;;;;0.30;0.30;;;26.10;66.60;;;26.56;51.27;95247.88;5097191;28;20203;-42
2023/07/14 07:51:09;;;;;;;0.30;0.30;;;26.10;66.50;;;26.56;51.05;95243.28;5097708;28;20230;-42
2023/07/14 07:53:36;;;;;;;0.40;0.40;;;26.10;66.50;;;26.57;51.06;95241.41;5098046;28;20279;-42
2023/07/14 07:56:04;;;;;;;0.30;0.30;;;26.10;66.50;;;26.58;50.96;95248.38;5097603;28;20231;-42
2023/07/14 07:58:31;;;;;;;0.30;0.30;;;26.10;66.40;;;26.59;50.84;95240.03;5097940;28;20192;-42
2023/07/14 08:01:02;;;;;;;0.30;0.30;;;26.10;66.40;;;26.59;50.71;95242.72;5096739;28;20199;-42
2023/07/14 08:03:29;;;;;;;0.30;0.30;;;26.10;66.20;;;26.59;50.71;95233.84;5097519;28;20232;-42
2023/07/14 08:06:05;;;;;;;0.32;0.32;;;26.10;66.20;;;26.61;50.33;95243.25;5097679;28;20196;-42
2023/07/14 08:08:34;;;;;;;0.35;0.35;;;26.10;65.90;;;26.63;50.72;95237.56;5098156;28;20195;-44
2023/07/14 08:11:02;;;;;;;0.30;0.30;;;26.10;66.10;;;26.63;50.10;95235.66;5097566;28;20719;-41
2023/07/14 08:13:29;;;;;;;0.30;0.30;;;26.20;66.20;;;26.63;50.47;95232.97;5097651;28;20529;-43
2023/07/14 08:15:57;;;;;;;0.30;0.30;;;26.10;66.10;;;26.66;50.56;95242.38;5097520;28;20517;-44
2023/07/14 08:18:26;;;;;;;0.30;0.30;;;26.20;66.10;;;26.67;50.18;95242.09;5097044;28;20568;-40
2023/07/14 08:20:53;;;;;;;0.30;0.30;;;26.20;66.10;;;26.67;50.52;95242.09;5096658;28;20215;-42
2023/07/14 08:23:22;;;;;;;0.30;0.30;;;26.20;66.00;;;26.68;50.08;95240.19;5097402;28;20201;-41
2023/07/14 08:26:02;;;;;;;0.30;0.30;;;26.20;65.90;;;26.69;50.24;95239.09;5097712;28;20252;-42
2023/07/14 08:28:30;;;;;;;0.30;0.30;;;26.20;65.40;;;26.69;49.64;95229.13;5096799;28;20250;-42
2023/07/14 08:31:07;;;;;;;0.30;0.30;;;26.20;65.70;;;26.69;49.79;95234.50;5097156;28;20218;-40
2023/07/14 08:33:36;;;;;;;0.20;0.20;;;26.20;65.50;;;26.70;50.03;95229.97;5097275;28;20175;-41
2023/07/14 08:36:04;;;;;;;0.30;0.30;;;26.20;66.50;;;26.73;50.02;95220.50;5097459;28;20192;-40
2023/07/14 08:38:33;;;;;;;0.32;0.32;;;26.20;65.60;;;26.74;49.55;95224.81;5096727;28;20207;-40
2023/07/14 08:41:24;;;;;;;0.30;0.30;;;26.20;65.60;;;26.73;49.74;95223.97;5097054;28;20212;-40
2023/07/14 08:44:17;;;;;;;0.20;0.20;;;26.30;65.30;;;26.73;49.43;95225.88;5097074;28;20275;-41
2023/07/14 08:47:02;;;;;;;0.30;0.30;;;26.20;65.40;;;26.73;49.68;95226.69;5096758;28;20195;-41
2023/07/14 08:49:54;;;;;;;0.30;0.30;;;26.30;65.20;;;26.74;49.57;95224.81;5096697;28;20181;-40
2023/07/14 08:52:32;;;;;;;0.20;0.20;;;26.30;65.20;;;26.75;49.45;95229.13;5096785;28;20214;-40
2023/07/14 08:55:05;;;;;;;0.30;0.30;;;26.30;65.20;;;26.77;49.52;95226.94;5097137;28;20188;-44
2023/07/14 08:57:53;;;;;;;0.30;0.30;;;26.30;65.10;;;26.78;49.60;95232.06;5096496;28;20178;-42
2023/07/14 09:00:54;;;;;;;0.30;0.30;;;26.30;66.00;;;26.78;49.55;95231.22;5095185;28;20182;-41
2023/07/14 09:03:44;;;;;;;0.30;0.30;;;26.30;65.20;;;26.78;49.32;95225.84;5096471;28;20226;-41
2023/07/14 09:06:23;;;;;;;0.30;0.30;;;26.30;65.10;;;26.81;48.60;95222.59;5096606;28;20197;-39
2023/07/14 09:08:53;;;;;;;0.30;0.30;;;26.30;65.10;;;26.84;49.11;95224.69;5095757;28;20187;-41
2023/07/14 09:11:45;;;;;;;0.20;0.20;;;26.30;65.20;;;26.84;48.92;95224.69;5078853;28;20227;-41
2023/07/14 09:15:01;;;;;;;0.22;0.22;;;26.30;65.10;;;26.83;49.31;95223.91;5095686;28;20520;-42
2023/07/14 09:18:00;;;;;;;0.22;0.22;;;26.30;65.20;;;26.83;49.15;95212.31;5095830;28;20270;-41
2023/07/14 09:20:55;;;;;;;0.30;0.30;;;26.30;65.30;;;26.85;49.17;95207.47;5084105;28;20638;-41
2023/07/14 09:23:53;;;;;;;0.28;0.28;;;26.30;65.20;;;26.85;49.51;95204.78;5096842;28;20225;-41
2023/07/14 09:26:32;;;;;;;0.30;0.30;;;26.40;65.30;;;26.87;49.45;95202.59;5096108;28;20199;-41
2023/07/14 09:29:10;;;;;;;0.30;0.30;;;26.40;65.10;;;26.90;49.33;95201.22;5095035;28;20249;-41
2023/07/14 09:31:51;;;;;;;0.30;0.30;;;26.40;65.10;;;26.92;49.21;95201.75;5095874;28;20204;-42
2023/07/14 09:34:39;;;;;;;0.20;0.20;;;26.40;65.10;;;26.91;49.16;95198.22;5096144;28;20185;-41
2023/07/14 09:37:19;;;;;;;0.30;0.30;;;26.40;65.10;;;26.94;49.27;95196.84;5095857;28;20248;-42
2023/07/14 09:39:53;;;;;;;0.30;0.30;;;26.40;64.90;;;26.97;48.82;95193.59;5096021;28;20274;-41
2023/07/14 09:42:32;;;;;;;0.30;0.30;;;26.40;65.00;;;26.98;48.99;95187.13;5095373;28;20190;-41
2023/07/14 09:45:14;;;;;;;0.20;0.20;;;26.40;65.80;;;26.99;48.54;95176.06;5094872;28;20188;-41
2023/07/14 09:47:45;;;;;;;0.30;0.30;;;26.40;64.70;;;27.02;48.36;95180.06;5095706;28;20270;-42
2023/07/14 09:50:17;;;;;;;0.25;0.25;;;26.50;64.50;;;27.04;48.47;95175.19;5095549;28;20181;-41
2023/07/14 09:52:57;;;;;;;0.30;0.30;;;26.50;64.10;;;27.05;48.29;95176.81;5096013;28;20256;-42
2023/07/14 09:55:25;;;;;;;0.30;0.30;;;26.50;63.90;;;27.07;48.17;95179.97;5096056;28;20178;-43
2023/07/14 09:57:54;;;;;;;0.30;0.30;;;26.50;64.10;;;27.10;47.66;95175.91;5095391;28;20549;-42
2023/07/14 10:00:41;;;;;;;0.40;0.40;;;26.50;63.90;;;27.12;47.35;95173.72;5095205;28;20218;-42
2023/07/14 10:03:15;;;;;;;0.30;0.30;;;26.50;63.70;;;27.12;47.99;95171.03;5095676;28;20197;-41
2023/07/14 10:05:58;;;;;;;0.30;0.30;;;26.60;63.90;;;27.13;47.38;95167.25;5095438;28;20689;-42
2023/07/14 10:08:28;;;;;;;0.30;0.30;;;26.60;63.60;;;27.17;47.32;95166.41;5095497;28;20195;-42
2023/07/14 10:10:58;;;;;;;0.30;0.30;;;26.60;63.90;;;27.19;47.66;95163.41;5095079;28;20209;-45
2023/07/14 10:13:27;;;;;;;0.30;0.30;;;26.60;63.70;;;27.20;47.12;95162.31;5095257;28;20189;-42
2023/07/14 10:16:07;;;;;;;0.30;0.30;;;26.60;63.60;;;27.21;46.95;95153.16;5095812;28;20192;-40
2023/07/14 10:19:00;;;;;;;0.30;0.30;;;26.60;63.50;;;27.21;47.52;95149.63;5095283;28;20262;-41
2023/07/14 10:21:34;;;;;;;0.30;0.30;;;26.60;63.60;;;27.22;47.15;95153.94;5094587;28;20186;-42
2023/07/14 10:24:14;;;;;;;0.30;0.30;;;26.60;63.30;;;27.24;46.81;95154.47;5095155;28;20208;-42
2023/07/14 10:26:51;;;;;;;0.40;0.40;;;26.70;63.40;;;27.25;46.61;95156.84;5095419;28;20317;-42
2023/07/14 10:29:22;;;;;;;0.30;0.30;;;26.60;63.20;;;27.27;46.57;95151.97;5095300;28;20526;-47
2023/07/14 10:32:19;;;;;;;0.30;0.30;;;26.60;63.40;;;27.26;46.99;95152.28;5095221;28;20278;-44
2023/07/14 10:34:59;;;;;;;0.30;0.30;;;26.70;63.00;;;27.27;46.54;95146.59;5094987;28;20190;-44
2023/07/14 10:37:35;;;;;;;0.30;0.30;;;26.70;63.10;;;27.29;46.49;95148.97;5095321;28;20275;-43
2023/07/14 10:40:21;;;;;;;0.30;0.30;;;26.70;63.00;;;27.29;46.35;95148.97;5095202;28;20188;-43